Time;durP1;ratioP1;P1;durP2;ratioP2;P2;SDS_P1;SDS_P2;PMS_P1;PMS_P2;Temp;Humidity;BMP_temperature;BMP_pressure;BME280_temperature;BME280_humidity;BME280_pressure;Samples;Min_cycle;Max_cycle;Signal;HPM_P1;HPM_P2
2023/10/27 00:00:57;;;;;;;119.60;64.25;;;9.20;99.90;;;;;;4927060;29;20114;-81
2023/10/27 00:03:23;;;;;;;111.80;60.00;;;9.20;99.90;;;;;;4927649;29;20127;-81
2023/10/27 00:05:49;;;;;;;136.02;65.30;;;9.20;99.90;;;;;;4917055;29;20512;-80
2023/10/27 00:08:14;;;;;;;104.70;58.78;;;9.20;99.90;;;;;;4917070;29;20047;-81
2023/10/27 00:10:40;;;;;;;111.32;58.97;;;9.20;99.90;;;;;;4916678;29;20071;-81
2023/10/27 00:13:05;;;;;;;101.60;56.10;;;9.20;99.90;;;;;;4916404;29;20080;-80
2023/10/27 00:15:31;;;;;;;100.25;56.92;;;9.20;99.90;;;;;;4882736;29;20132;-80
2023/10/27 00:17:58;;;;;;;111.63;60.50;;;9.20;99.90;;;;;;4908291;29;20064;-80
2023/10/27 00:20:24;;;;;;;114.28;60.95;;;9.20;99.90;;;;;;4916849;29;20407;-82
2023/10/27 00:22:50;;;;;;;115.20;62.40;;;9.10;99.90;;;;;;4915938;29;20118;-80
2023/10/27 00:25:15;;;;;;;122.07;62.38;;;9.20;99.90;;;;;;4901551;29;20139;-80
2023/10/27 00:27:41;;;;;;;123.47;62.65;;;9.20;99.90;;;;;;4912238;29;20090;-80
2023/10/27 00:30:07;;;;;;;125.93;62.92;;;9.10;99.90;;;;;;4936410;29;20075;-81
2023/10/27 00:32:33;;;;;;;124.38;62.95;;;9.10;99.90;;;;;;4913964;29;20044;-80
2023/10/27 00:34:59;;;;;;;124.72;64.15;;;9.10;99.90;;;;;;4902372;29;20048;-80
2023/10/27 00:37:24;;;;;;;125.90;62.35;;;9.10;99.90;;;;;;4910057;29;20039;-81
2023/10/27 00:39:50;;;;;;;125.38;60.60;;;9.10;99.90;;;;;;4901493;29;20088;-80
2023/10/27 00:42:15;;;;;;;131.18;62.83;;;9.10;99.90;;;;;;4916931;29;20075;-81
2023/10/27 00:44:41;;;;;;;122.82;60.47;;;9.10;99.90;;;;;;4907106;29;20044;-81
2023/10/27 00:47:08;;;;;;;120.65;61.15;;;9.10;99.90;;;;;;4925107;29;20051;-80
2023/10/27 00:49:34;;;;;;;122.72;59.83;;;9.10;99.90;;;;;;4911262;29;20047;-80
2023/10/27 00:52:00;;;;;;;117.88;58.67;;;9.10;99.90;;;;;;4906883;29;20047;-81
2023/10/27 00:54:26;;;;;;;117.38;59.03;;;9.10;99.90;;;;;;4901072;29;20258;-80
2023/10/27 00:56:53;;;;;;;120.47;57.92;;;9.00;99.90;;;;;;4923556;29;20064;-80
2023/10/27 00:59:18;;;;;;;121.80;59.58;;;9.00;99.90;;;;;;4916737;29;20040;-80
2023/10/27 01:01:44;;;;;;;122.57;60.42;;;9.00;99.90;;;;;;4912328;29;20043;-81
2023/10/27 01:04:09;;;;;;;119.72;59.58;;;9.00;99.90;;;;;;4901067;29;20383;-81
2023/10/27 01:06:35;;;;;;;121.55;59.50;;;9.00;99.90;;;;;;4915011;29;20391;-81
2023/10/27 01:09:01;;;;;;;120.45;58.15;;;9.00;99.90;;;;;;4911823;29;20043;-80
2023/10/27 01:11:26;;;;;;;121.20;59.30;;;9.00;99.90;;;;;;4902445;29;20044;-81
2023/10/27 01:13:53;;;;;;;123.55;58.85;;;9.00;99.90;;;;;;4919434;29;20093;-81
2023/10/27 01:16:19;;;;;;;118.40;58.40;;;9.00;99.90;;;;;;4922542;29;20394;-81
2023/10/27 01:18:45;;;;;;;114.93;57.97;;;9.00;99.90;;;;;;4903276;29;20086;-80
2023/10/27 01:21:10;;;;;;;115.47;58.55;;;9.00;99.90;;;;;;4917723;29;20043;-81
2023/10/27 01:23:36;;;;;;;121.97;59.42;;;9.00;99.90;;;;;;4910472;29;20092;-80
2023/10/27 01:26:03;;;;;;;116.47;59.38;;;9.00;99.90;;;;;;4911803;29;20498;-81
2023/10/27 01:28:29;;;;;;;116.15;59.83;;;9.10;99.90;;;;;;4910264;29;20063;-80
2023/10/27 01:30:55;;;;;;;113.40;59.75;;;9.10;99.90;;;;;;4912150;29;20087;-81
2023/10/27 01:33:21;;;;;;;115.20;61.00;;;9.10;99.90;;;;;;4921389;29;20474;-80
2023/10/27 01:35:47;;;;;;;123.25;61.70;;;9.10;99.90;;;;;;4924190;29;20040;-81
2023/10/27 01:38:13;;;;;;;125.15;62.72;;;9.10;99.90;;;;;;4923314;29;20043;-81
2023/10/27 01:40:38;;;;;;;116.07;61.17;;;9.10;99.90;;;;;;4925800;29;20170;-81
2023/10/27 01:43:04;;;;;;;118.35;61.13;;;9.10;99.90;;;;;;4914176;29;20048;-81
2023/10/27 01:45:29;;;;;;;128.65;63.13;;;9.10;99.90;;;;;;4918980;29;20071;-81
2023/10/27 01:47:55;;;;;;;123.38;65.63;;;9.10;99.90;;;;;;4929598;29;20067;-81
2023/10/27 01:50:21;;;;;;;115.10;63.03;;;9.10;99.90;;;;;;4902787;29;20035;-80
2023/10/27 01:52:46;;;;;;;118.93;62.90;;;9.20;99.90;;;;;;4907972;29;20047;-81
2023/10/27 01:55:12;;;;;;;109.95;60.25;;;9.10;99.90;;;;;;4906654;29;20615;-81
2023/10/27 01:57:37;;;;;;;112.05;64.15;;;9.20;99.90;;;;;;4918029;29;20051;-81
2023/10/27 02:00:03;;;;;;;111.70;60.58;;;9.20;99.90;;;;;;4929208;29;20040;-81
2023/10/27 02:02:29;;;;;;;104.43;59.65;;;9.20;99.90;;;;;;4910895;29;20130;-81
2023/10/27 02:04:55;;;;;;;101.43;58.15;;;9.20;99.90;;;;;;4913846;29;20195;-80
2023/10/27 02:07:24;;;;;;;102.55;58.97;;;9.20;99.90;;;;;;4901784;29;20531;-81
2023/10/27 02:09:51;;;;;;;97.88;56.47;;;9.20;99.90;;;;;;4912513;29;20035;-81
2023/10/27 02:12:16;;;;;;;99.97;57.78;;;9.20;99.90;;;;;;4910777;29;20043;-81
2023/10/27 02:14:42;;;;;;;91.13;54.97;;;9.20;99.90;;;;;;4923695;29;20082;-81
2023/10/27 02:17:07;;;;;;;92.30;54.50;;;9.30;99.90;;;;;;4909018;29;20067;-81
2023/10/27 02:19:33;;;;;;;89.15;54.35;;;9.30;99.90;;;;;;4916938;29;20037;-81
2023/10/27 02:21:59;;;;;;;98.28;56.15;;;9.30;99.90;;;;;;4926614;29;20479;-81
2023/10/27 02:24:24;;;;;;;96.07;56.42;;;9.20;99.90;;;;;;4934234;29;20498;-81
2023/10/27 02:26:50;;;;;;;94.93;55.35;;;9.20;99.90;;;;;;4918737;29;20043;-81
2023/10/27 02:29:17;;;;;;;96.75;55.65;;;9.20;99.90;;;;;;4909018;29;20483;-82
2023/10/27 02:31:43;;;;;;;101.05;56.53;;;9.20;99.90;;;;;;4906824;29;20035;-80
2023/10/27 02:34:09;;;;;;;107.70;58.38;;;9.20;99.90;;;;;;4904717;29;20055;-81
2023/10/27 02:36:34;;;;;;;110.47;57.88;;;9.30;99.90;;;;;;4908315;29;20040;-81
2023/10/27 02:39:00;;;;;;;107.05;58.00;;;9.30;99.90;;;;;;4922325;29;20091;-82
2023/10/27 02:41:25;;;;;;;105.40;58.80;;;9.30;99.90;;;;;;4904231;29;20036;-81
2023/10/27 02:43:51;;;;;;;104.78;58.60;;;9.30;99.90;;;;;;4901780;29;20050;-81
2023/10/27 02:46:17;;;;;;;105.95;57.47;;;9.30;99.90;;;;;;4917812;29;20561;-81
2023/10/27 02:48:42;;;;;;;108.10;56.28;;;9.30;99.90;;;;;;4918210;29;20039;-81
2023/10/27 02:51:09;;;;;;;104.82;56.95;;;9.30;99.90;;;;;;4907229;29;20044;-81
2023/10/27 02:53:34;;;;;;;101.97;55.65;;;9.30;99.90;;;;;;4916829;29;20502;-82
2023/10/27 02:56:07;;;;;;;113.20;59.58;;;9.30;99.90;;;;;;4910465;29;20047;-81
2023/10/27 02:58:33;;;;;;;;;;;9.30;99.90;;;;;;4908376;29;20031;-82
2023/10/27 03:00:59;;;;;;;108.88;58.30;;;9.30;99.90;;;;;;4908935;29;20427;-81
2023/10/27 03:03:27;;;;;;;108.20;59.58;;;9.30;99.90;;;;;;4915357;29;20566;-81
2023/10/27 03:05:53;;;;;;;110.00;58.63;;;9.30;99.90;;;;;;4909650;29;20114;-81
2023/10/27 03:08:19;;;;;;;107.20;57.75;;;9.30;99.90;;;;;;4934011;29;20542;-81
2023/10/27 03:10:44;;;;;;;105.18;59.03;;;9.30;99.90;;;;;;4913338;29;20067;-81
2023/10/27 03:13:10;;;;;;;103.55;57.13;;;9.30;99.90;;;;;;4917840;29;20039;-82
2023/10/27 03:15:35;;;;;;;106.25;60.10;;;9.30;99.90;;;;;;4917831;29;20048;-82
2023/10/27 03:18:02;;;;;;;105.00;57.65;;;9.30;99.90;;;;;;4912441;29;20043;-81
2023/10/27 03:20:28;;;;;;;104.53;59.10;;;9.30;99.90;;;;;;4913962;29;20040;-82
2023/10/27 03:22:54;;;;;;;94.78;55.70;;;9.40;99.90;;;;;;4905158;29;20483;-82
2023/10/27 03:25:19;;;;;;;98.60;55.97;;;9.30;99.90;;;;;;4898826;29;20049;-81
2023/10/27 03:27:45;;;;;;;96.03;54.85;;;9.30;99.90;;;;;;4898664;29;20050;-81
2023/10/27 03:30:11;;;;;;;96.72;55.95;;;9.30;99.90;;;;;;4920974;29;20046;-80
2023/10/27 03:32:37;;;;;;;92.57;54.25;;;9.30;99.90;;;;;;4898961;29;20379;-80
2023/10/27 03:35:03;;;;;;;92.00;53.45;;;9.30;99.90;;;;;;4902642;29;20091;-81
2023/10/27 03:37:28;;;;;;;93.55;54.95;;;9.30;99.90;;;;;;4908385;29;20048;-81
2023/10/27 03:39:55;;;;;;;89.40;52.47;;;9.30;99.90;;;;;;4902950;29;20035;-81
2023/10/27 03:42:20;;;;;;;91.32;54.03;;;9.30;99.90;;;;;;4909481;29;20111;-82
2023/10/27 03:44:46;;;;;;;93.00;54.55;;;9.30;99.90;;;;;;4933160;29;20043;-82
2023/10/27 03:47:12;;;;;;;99.50;55.13;;;9.30;99.90;;;;;;4915770;29;20051;-81
2023/10/27 03:49:37;;;;;;;91.07;54.28;;;9.30;99.90;;;;;;4908526;29;20063;-82
2023/10/27 03:52:03;;;;;;;101.00;56.80;;;9.30;99.90;;;;;;4909546;29;20068;-81
2023/10/27 03:54:28;;;;;;;93.15;54.65;;;9.20;99.90;;;;;;4917428;29;20043;-81
2023/10/27 03:56:55;;;;;;;95.70;54.45;;;9.20;99.90;;;;;;4917272;29;20040;-81
2023/10/27 03:59:21;;;;;;;87.25;51.08;;;9.30;99.90;;;;;;4909369;29;20122;-82
2023/10/27 04:01:46;;;;;;;85.63;52.90;;;9.30;99.90;;;;;;4918960;29;20474;-81
2023/10/27 04:04:12;;;;;;;88.70;53.35;;;9.30;99.90;;;;;;4916178;29;20395;-81
2023/10/27 04:06:38;;;;;;;91.07;52.92;;;9.30;99.90;;;;;;4902807;29;20047;-82
2023/10/27 04:09:04;;;;;;;87.47;52.53;;;9.30;99.90;;;;;;4902491;29;20403;-81
2023/10/27 04:11:29;;;;;;;90.00;53.53;;;9.30;99.90;;;;;;4911259;29;20623;-82
2023/10/27 04:13:55;;;;;;;88.00;52.33;;;9.20;99.90;;;;;;4920927;29;20138;-82
2023/10/27 04:16:21;;;;;;;89.10;51.50;;;9.30;99.90;;;;;;4913540;29;20047;-81
2023/10/27 04:18:46;;;;;;;76.50;48.17;;;9.30;99.90;;;;;;4928536;29;20107;-80
2023/10/27 04:21:12;;;;;;;86.70;51.28;;;9.30;99.90;;;;;;4912306;29;20043;-82
2023/10/27 04:23:37;;;;;;;86.82;52.50;;;9.30;99.90;;;;;;4913130;29;20083;-81
2023/10/27 04:26:03;;;;;;;91.60;51.22;;;9.30;99.90;;;;;;4914822;29;20043;-81
2023/10/27 04:28:28;;;;;;;89.35;51.13;;;9.30;99.90;;;;;;4909528;29;20044;-81
2023/10/27 04:30:54;;;;;;;90.20;52.53;;;9.30;99.90;;;;;;4905532;29;20032;-81
2023/10/27 04:33:21;;;;;;;90.28;52.38;;;9.30;99.90;;;;;;4912029;29;20421;-81
2023/10/27 04:35:48;;;;;;;87.40;51.55;;;9.20;99.90;;;;;;4928650;29;20048;-81
2023/10/27 04:38:14;;;;;;;79.32;46.33;;;9.30;99.90;;;;;;4920874;29;20039;-81
2023/10/27 04:40:39;;;;;;;83.40;48.20;;;9.30;99.90;;;;;;4911584;29;20032;-81
2023/10/27 04:43:05;;;;;;;86.45;51.33;;;9.30;99.90;;;;;;4927088;29;20185;-81
2023/10/27 04:45:31;;;;;;;83.60;48.50;;;9.30;99.90;;;;;;4924059;29;20046;-81
2023/10/27 04:47:56;;;;;;;85.85;50.83;;;9.30;99.90;;;;;;4914300;29;20118;-81
2023/10/27 04:50:23;;;;;;;84.88;51.30;;;9.20;99.90;;;;;;4933119;29;20106;-81
2023/10/27 04:52:49;;;;;;;86.68;50.88;;;9.20;99.90;;;;;;4898323;29;20126;-82
2023/10/27 04:55:14;;;;;;;86.50;51.55;;;9.20;99.90;;;;;;4911380;29;20126;-81
2023/10/27 04:57:41;;;;;;;88.55;53.40;;;9.20;99.90;;;;;;4920104;29;20040;-81
2023/10/27 05:00:08;;;;;;;88.05;51.50;;;9.20;99.90;;;;;;4915493;29;20036;-81
2023/10/27 05:02:34;;;;;;;92.03;54.65;;;9.30;99.90;;;;;;4904935;29;20047;-81
2023/10/27 05:04:59;;;;;;;91.00;53.25;;;9.30;99.90;;;;;;4908784;29;20044;-81
2023/10/27 05:07:25;;;;;;;90.75;52.95;;;9.20;99.90;;;;;;4917684;29;20214;-81
2023/10/27 05:09:51;;;;;;;93.55;54.20;;;9.20;99.90;;;;;;4920315;29;20414;-81
2023/10/27 05:12:18;;;;;;;94.82;54.70;;;9.20;99.90;;;;;;4934652;29;20044;-81
2023/10/27 05:14:43;;;;;;;95.90;56.47;;;9.30;99.90;;;;;;4908225;29;20050;-81
2023/10/27 05:17:09;;;;;;;96.50;55.30;;;9.20;99.90;;;;;;4912164;29;20040;-81
2023/10/27 05:19:35;;;;;;;95.30;55.67;;;9.20;99.90;;;;;;4913118;29;20398;-81
2023/10/27 05:22:04;;;;;;;96.05;57.00;;;9.20;99.90;;;;;;4930417;29;20391;-81
2023/10/27 05:24:31;;;;;;;97.78;56.28;;;9.20;99.90;;;;;;4927861;29;20051;-81
2023/10/27 05:26:56;;;;;;;95.80;54.80;;;9.20;99.90;;;;;;4915418;29;20114;-81
2023/10/27 05:29:22;;;;;;;98.47;56.05;;;9.30;99.90;;;;;;4909082;29;20052;-81
2023/10/27 05:31:47;;;;;;;93.80;53.67;;;9.30;99.90;;;;;;4912994;29;20410;-81
2023/10/27 05:34:15;;;;;;;100.00;55.85;;;9.30;99.90;;;;;;4911975;29;20047;-81
2023/10/27 05:36:41;;;;;;;100.53;57.38;;;9.30;99.90;;;;;;4919042;29;20032;-82
2023/10/27 05:39:06;;;;;;;97.70;54.30;;;9.20;99.90;;;;;;4910898;29;20484;-81
2023/10/27 05:41:32;;;;;;;101.43;55.70;;;9.20;99.90;;;;;;4901420;29;20080;-81
2023/10/27 05:43:58;;;;;;;102.57;56.10;;;9.20;99.90;;;;;;4924083;29;20036;-82
2023/10/27 05:46:23;;;;;;;107.50;57.95;;;9.20;99.90;;;;;;4907973;29;20036;-81
2023/10/27 05:48:49;;;;;;;106.88;58.55;;;9.20;99.90;;;;;;4909407;29;20040;-79
2023/10/27 05:51:15;;;;;;;113.07;58.45;;;9.20;99.90;;;;;;4923901;29;20044;-81
2023/10/27 05:53:41;;;;;;;111.13;58.85;;;9.20;99.90;;;;;;4918829;29;20050;-81
2023/10/27 05:56:07;;;;;;;114.22;59.15;;;9.20;99.90;;;;;;4912252;29;20040;-82
2023/10/27 05:58:35;;;;;;;109.10;57.90;;;9.20;99.90;;;;;;4923844;29;20171;-82
2023/10/27 06:01:01;;;;;;;113.32;58.75;;;9.20;99.90;;;;;;4916930;29;20036;-82
2023/10/27 06:03:26;;;;;;;113.95;61.20;;;9.20;99.90;;;;;;4895633;29;20129;-81
2023/10/27 06:05:52;;;;;;;112.15;57.30;;;9.20;99.90;;;;;;4900702;29;20050;-81
2023/10/27 06:08:19;;;;;;;114.72;61.25;;;9.20;99.90;;;;;;4915706;29;20043;-82
2023/10/27 06:10:44;;;;;;;110.40;59.92;;;9.20;99.90;;;;;;4901271;29;20042;-81
2023/10/27 06:13:11;;;;;;;117.65;60.65;;;9.20;99.90;;;;;;4908485;29;20476;-81
2023/10/27 06:15:37;;;;;;;120.78;62.53;;;9.20;99.90;;;;;;4929318;29;20732;-82
2023/10/27 06:18:04;;;;;;;119.78;62.42;;;9.20;99.90;;;;;;4918793;29;20066;-82
2023/10/27 06:20:29;;;;;;;113.78;62.60;;;9.20;99.90;;;;;;4930389;29;20036;-82
2023/10/27 06:22:55;;;;;;;120.90;63.65;;;9.20;99.90;;;;;;4921256;29;20087;-81
2023/10/27 06:25:25;;;;;;;115.82;62.58;;;9.20;99.90;;;;;;4899936;29;20040;-82
2023/10/27 06:27:54;;;;;;;121.82;64.32;;;9.20;99.90;;;;;;4906596;29;20039;-82
2023/10/27 06:30:20;;;;;;;123.28;63.78;;;9.20;99.90;;;;;;4913669;29;20048;-82
2023/10/27 06:32:47;;;;;;;121.18;64.60;;;9.20;99.90;;;;;;4915768;29;20044;-81
2023/10/27 06:35:13;;;;;;;122.53;64.20;;;9.20;99.90;;;;;;4907613;29;20500;-81
2023/10/27 06:37:39;;;;;;;119.00;64.30;;;9.20;99.90;;;;;;4923602;29;20031;-81
2023/10/27 06:40:05;;;;;;;123.43;64.45;;;9.20;99.90;;;;;;4921778;29;20466;-81
2023/10/27 06:42:31;;;;;;;125.72;66.70;;;9.20;99.90;;;;;;4925175;29;20071;-81
2023/10/27 06:44:56;;;;;;;125.97;66.88;;;9.20;99.90;;;;;;4901710;29;20044;-81
2023/10/27 06:47:22;;;;;;;132.90;66.97;;;9.20;99.90;;;;;;4915664;29;20044;-82
2023/10/27 06:49:48;;;;;;;131.07;67.05;;;9.20;99.90;;;;;;4915031;29;20100;-82
2023/10/27 06:52:13;;;;;;;116.43;63.65;;;9.20;99.90;;;;;;4899205;29;20451;-83
2023/10/27 06:54:40;;;;;;;118.03;63.95;;;9.20;99.90;;;;;;4912944;29;20055;-82
2023/10/27 06:57:10;;;;;;;112.47;63.03;;;9.20;99.90;;;;;;4903929;29;20168;-82
2023/10/27 06:59:35;;;;;;;115.15;63.65;;;9.20;99.90;;;;;;4899126;29;20122;-82
2023/10/27 07:02:01;;;;;;;113.97;63.58;;;9.30;99.90;;;;;;4911942;29;20216;-82
2023/10/27 07:04:26;;;;;;;115.07;64.38;;;9.20;99.90;;;;;;4908878;29;20067;-83
2023/10/27 07:06:52;;;;;;;112.90;63.95;;;9.20;99.90;;;;;;4910312;29;20051;-83
2023/10/27 07:09:17;;;;;;;114.07;64.07;;;9.30;99.90;;;;;;4920459;29;20046;-82
2023/10/27 07:11:43;;;;;;;106.40;60.92;;;9.20;99.90;;;;;;4896703;29;20040;-81
2023/10/27 07:14:10;;;;;;;106.18;62.08;;;9.30;99.90;;;;;;4917660;29;20080;-81
2023/10/27 07:16:36;;;;;;;103.32;61.35;;;9.30;99.90;;;;;;4890161;29;20046;-82
2023/10/27 07:19:02;;;;;;;101.60;62.28;;;9.30;99.90;;;;;;4901776;29;20131;-80
2023/10/27 07:21:28;;;;;;;101.60;60.30;;;9.30;99.90;;;;;;4899216;29;20518;-82
2023/10/27 07:23:53;;;;;;;91.97;55.25;;;9.30;99.90;;;;;;4911595;29;20039;-81
2023/10/27 07:26:20;;;;;;;96.75;58.65;;;9.30;99.90;;;;;;4925862;29;20048;-81
2023/10/27 07:28:45;;;;;;;100.43;59.58;;;9.30;99.90;;;;;;4914618;29;20059;-82
2023/10/27 07:31:11;;;;;;;104.03;60.50;;;9.30;99.90;;;;;;4929541;29;20052;-83
2023/10/27 07:33:40;;;;;;;107.38;58.80;;;9.30;99.90;;;;;;4915120;29;20046;-83
2023/10/27 07:36:06;;;;;;;98.55;57.97;;;9.30;99.90;;;;;;4906484;29;20103;-82
2023/10/27 07:38:34;;;;;;;119.93;61.17;;;9.30;99.90;;;;;;4929632;29;20521;-80
2023/10/27 07:41:00;;;;;;;105.43;58.65;;;9.30;99.90;;;;;;4929990;29;20032;-82
2023/10/27 07:43:25;;;;;;;109.32;59.45;;;9.30;99.90;;;;;;4926466;29;20090;-82
2023/10/27 07:45:54;;;;;;;103.95;59.67;;;9.30;99.90;;;;;;4930405;29;20163;-82
2023/10/27 07:48:19;;;;;;;105.35;59.08;;;9.30;99.90;;;;;;4937320;29;20043;-82
2023/10/27 07:50:45;;;;;;;102.47;57.80;;;9.30;99.90;;;;;;4937313;29;20043;-82
2023/10/27 07:53:11;;;;;;;110.05;60.42;;;9.30;99.90;;;;;;4914211;29;20040;-82
2023/10/27 07:55:36;;;;;;;107.80;58.88;;;9.30;99.90;;;;;;4928925;29;20046;-82
2023/10/27 07:58:04;;;;;;;113.30;62.58;;;9.30;99.90;;;;;;4921601;29;20047;-82
2023/10/27 08:00:31;;;;;;;113.50;60.20;;;9.30;99.90;;;;;;4937276;29;20046;-82
2023/10/27 08:02:57;;;;;;;112.03;60.15;;;9.30;99.90;;;;;;4921166;29;20063;-82
2023/10/27 08:05:23;;;;;;;111.45;60.35;;;9.30;99.90;;;;;;4926242;29;20047;-82
2023/10/27 08:07:49;;;;;;;108.45;59.10;;;9.30;99.90;;;;;;4904978;29;20036;-81
2023/10/27 08:10:16;;;;;;;102.95;58.38;;;9.30;99.90;;;;;;4914341;29;20053;-80
2023/10/27 08:12:42;;;;;;;110.28;59.10;;;9.30;99.90;;;;;;4928718;29;20052;-82
2023/10/27 08:15:09;;;;;;;110.60;58.72;;;9.30;99.90;;;;;;4936792;29;20422;-82
2023/10/27 08:17:35;;;;;;;115.38;59.75;;;9.30;99.90;;;;;;4926749;29;20075;-82
2023/10/27 08:20:02;;;;;;;109.22;57.60;;;9.30;99.90;;;;;;4920037;29;20032;-80
2023/10/27 08:22:27;;;;;;;108.65;59.28;;;9.30;99.90;;;;;;4934618;29;20035;-81
2023/10/27 08:24:53;;;;;;;108.72;57.65;;;9.30;99.90;;;;;;4920706;29;20040;-81
2023/10/27 08:27:19;;;;;;;105.65;57.95;;;9.30;99.90;;;;;;4936982;29;20075;-81
2023/10/27 08:29:44;;;;;;;99.55;54.92;;;9.30;99.90;;;;;;4920824;29;20102;-81
2023/10/27 08:32:11;;;;;;;112.63;58.80;;;9.30;99.90;;;;;;4932433;29;20126;-81
2023/10/27 08:34:37;;;;;;;105.97;56.97;;;9.30;99.90;;;;;;4928387;29;20051;-81
2023/10/27 08:37:03;;;;;;;102.35;56.45;;;9.40;99.90;;;;;;4936269;29;20040;-80
2023/10/27 08:39:32;;;;;;;94.50;55.50;;;9.40;99.90;;;;;;4936193;29;20040;-81
2023/10/27 08:41:58;;;;;;;95.53;54.35;;;9.40;99.90;;;;;;4936675;29;20368;-82
2023/10/27 08:44:24;;;;;;;95.47;53.92;;;9.40;99.90;;;;;;4936334;29;20059;-81
2023/10/27 08:46:50;;;;;;;101.60;55.42;;;9.40;99.90;;;;;;4909110;29;20063;-81
2023/10/27 08:49:16;;;;;;;98.35;54.30;;;9.40;99.90;;;;;;4932577;29;20051;-81
2023/10/27 08:51:42;;;;;;;93.50;54.70;;;9.40;99.90;;;;;;4920295;29;20047;-81
2023/10/27 08:54:07;;;;;;;99.38;53.95;;;9.40;99.90;;;;;;4936348;29;20110;-81
2023/10/27 08:56:33;;;;;;;98.43;55.20;;;9.40;99.90;;;;;;4925510;29;20036;-81
2023/10/27 08:59:00;;;;;;;107.93;55.08;;;9.50;99.90;;;;;;4920000;29;20043;-81
2023/10/27 09:01:26;;;;;;;102.30;55.63;;;9.40;99.90;;;;;;4935994;29;20035;-81
2023/10/27 09:04:12;;;;;;;101.13;54.80;;;9.40;99.90;;;;;;4914818;29;20388;-81
2023/10/27 09:06:39;;;;;;;98.70;54.17;;;9.50;99.90;;;;;;4926204;29;20048;-81
2023/10/27 09:09:14;;;;;;;91.97;52.67;;;9.50;99.90;;;;;;4919875;29;20047;-82
2023/10/27 09:11:47;;;;;;;93.47;52.90;;;9.50;99.90;;;;;;4925613;29;20114;-81
2023/10/27 09:14:17;;;;;;;89.15;51.88;;;9.50;99.90;;;;;;4911970;29;20426;-81
2023/10/27 09:16:43;;;;;;;92.28;50.55;;;9.60;99.90;;;;;;4935180;29;20040;-81
2023/10/27 09:19:27;;;;;;;83.22;50.70;;;9.60;99.90;;;;;;4925163;29;20527;-80
2023/10/27 09:21:55;;;;;;;80.05;49.92;;;9.60;99.90;;;;;;4907614;29;20035;-80
2023/10/27 09:24:29;;;;;;;95.95;54.03;;;9.60;99.90;;;;;;4931987;29;20044;-81
2023/10/27 09:26:56;;;;;;;94.65;52.45;;;9.60;99.90;;;;;;4925907;29;20036;-80
2023/10/27 09:29:23;;;;;;;104.25;53.70;;;9.60;99.90;;;;;;4919207;29;20399;-81
2023/10/27 09:31:50;;;;;;;87.35;51.67;;;9.60;99.90;;;;;;4921506;29;20043;-79
2023/10/27 09:34:24;;;;;;;89.97;52.45;;;9.60;99.90;;;;;;4916649;29;20096;-80
2023/10/27 09:36:52;;;;;;;92.00;52.80;;;9.60;99.90;;;;;;4909197;29;20395;-80
2023/10/27 09:39:19;;;;;;;99.38;54.75;;;9.60;99.90;;;;;;4924029;29;20051;-80
2023/10/27 09:41:56;;;;;;;92.50;53.42;;;9.60;99.90;;;;;;4923495;29;20040;-80
2023/10/27 09:44:38;;;;;;;86.82;50.83;;;9.60;99.90;;;;;;4932203;29;20059;-80
2023/10/27 09:47:12;;;;;;;98.15;54.08;;;9.60;99.90;;;;;;4902983;29;20457;-80
2023/10/27 09:49:39;;;;;;;89.65;52.08;;;9.60;99.90;;;;;;4901784;29;20420;-81
2023/10/27 09:52:11;;;;;;;81.28;49.45;;;9.60;99.90;;;;;;4925974;29;20051;-81
2023/10/27 09:54:37;;;;;;;81.38;48.88;;;9.60;99.90;;;;;;4921577;29;20047;-81
2023/10/27 09:57:04;;;;;;;74.22;46.40;;;9.70;99.90;;;;;;4921509;29;20371;-80
2023/10/27 09:59:30;;;;;;;77.72;47.45;;;9.70;99.90;;;;;;4916713;29;20040;-81
2023/10/27 10:02:05;;;;;;;75.65;47.28;;;9.70;99.90;;;;;;4907622;29;20036;-81
2023/10/27 10:04:52;;;;;;;74.50;47.33;;;9.70;99.90;;;;;;4920004;29;20517;-81
2023/10/27 10:07:34;;;;;;;68.88;44.85;;;9.70;99.90;;;;;;4912514;29;20040;-80
2023/10/27 10:10:35;;;;;;;68.55;44.75;;;9.70;99.90;;;;;;4918038;29;20131;-81
2023/10/27 10:13:17;;;;;;;73.35;44.55;;;9.70;99.90;;;;;;4917851;29;20044;-82
2023/10/27 10:15:45;;;;;;;63.92;42.95;;;9.70;99.90;;;;;;4916933;29;20063;-81
2023/10/27 10:18:20;;;;;;;67.25;41.80;;;9.70;99.90;;;;;;4925721;29;20036;-80
2023/10/27 10:20:53;;;;;;;59.67;41.40;;;9.70;99.90;;;;;;4918199;29;20036;-80
2023/10/27 10:23:20;;;;;;;73.72;44.53;;;9.70;99.90;;;;;;4914843;29;20046;-80
2023/10/27 10:25:53;;;;;;;74.50;45.45;;;9.70;99.90;;;;;;4915006;29;20055;-80
2023/10/27 10:28:18;;;;;;;64.75;42.33;;;9.70;99.90;;;;;;4919234;29;20048;-80
2023/10/27 10:30:47;;;;;;;61.05;41.42;;;9.80;99.90;;;;;;4922730;29;20071;-80
2023/10/27 10:33:14;;;;;;;63.42;40.72;;;9.80;99.90;;;;;;4906908;29;20054;-80
2023/10/27 10:35:40;;;;;;;57.90;39.42;;;9.80;99.90;;;;;;4922942;29;20044;-81
2023/10/27 10:38:21;;;;;;;64.63;41.40;;;9.80;99.90;;;;;;4899887;29;20035;-79
2023/10/27 10:40:53;;;;;;;65.90;42.30;;;9.80;99.90;;;;;;4904443;29;20046;-80
2023/10/27 10:43:24;;;;;;;70.55;42.78;;;9.70;99.90;;;;;;4912044;29;20567;-80
2023/10/27 10:45:55;;;;;;;67.00;43.55;;;9.70;99.90;;;;;;4902972;29;20225;-80
2023/10/27 10:48:26;;;;;;;65.40;41.83;;;9.70;99.90;;;;;;4905390;29;20044;-80
2023/10/27 10:50:55;;;;;;;67.95;42.05;;;9.80;99.90;;;;;;4923357;29;20062;-80
2023/10/27 10:53:24;;;;;;;79.47;45.60;;;9.80;99.90;;;;;;4925702;29;20044;-80
2023/10/27 10:55:50;;;;;;;71.38;43.42;;;9.80;99.90;;;;;;4916864;29;20040;-81
2023/10/27 10:58:27;;;;;;;67.18;42.25;;;9.80;99.90;;;;;;4925415;29;20417;-80
2023/10/27 11:00:55;;;;;;;67.20;42.97;;;9.80;99.90;;;;;;4893298;29;20091;-79
2023/10/27 11:03:22;;;;;;;69.10;42.90;;;9.80;99.90;;;;;;4919839;29;20044;-80
2023/10/27 11:05:48;;;;;;;71.25;43.92;;;9.80;99.90;;;;;;4914431;29;20068;-81
2023/10/27 11:08:24;;;;;;;61.47;41.15;;;9.80;99.90;;;;;;4921227;29;20098;-79
2023/10/27 11:11:02;;;;;;;62.20;40.90;;;9.80;99.90;;;;;;4914136;29;20394;-80
2023/10/27 11:13:28;;;;;;;69.47;42.90;;;9.90;99.90;;;;;;4921407;29;20505;-81
2023/10/27 11:15:53;;;;;;;65.72;42.60;;;9.90;99.90;;;;;;4927564;29;20043;-81
2023/10/27 11:18:19;;;;;;;62.85;41.67;;;9.90;99.90;;;;;;4915613;29;20079;-81
2023/10/27 11:20:45;;;;;;;67.38;40.38;;;9.90;99.90;;;;;;4906202;29;20043;-81
2023/10/27 11:23:16;;;;;;;65.90;41.85;;;9.90;99.90;;;;;;4929588;29;20051;-81
2023/10/27 11:25:43;;;;;;;74.55;43.42;;;9.90;99.90;;;;;;4915715;29;20506;-80
2023/10/27 11:28:21;;;;;;;53.67;38.90;;;9.90;99.90;;;;;;4906178;29;20404;-81
2023/10/27 11:31:15;;;;;;;57.53;39.33;;;10.00;99.90;;;;;;4915484;29;20036;-81
2023/10/27 11:34:07;;;;;;;72.30;41.85;;;9.90;99.90;;;;;;4914673;29;20042;-81
2023/10/27 11:36:40;;;;;;;63.40;40.28;;;10.00;99.90;;;;;;4925693;29;20040;-80
2023/10/27 11:39:15;;;;;;;62.03;41.25;;;10.00;99.90;;;;;;4933995;29;20075;-81
2023/10/27 11:41:42;;;;;;;57.78;39.90;;;10.00;99.90;;;;;;4930097;29;20075;-84
2023/10/27 11:44:08;;;;;;;63.75;41.15;;;10.00;99.90;;;;;;4907624;29;20043;-80
2023/10/27 11:46:34;;;;;;;58.65;41.08;;;10.00;99.90;;;;;;4909764;29;20542;-81
2023/10/27 11:49:00;;;;;;;77.43;42.97;;;10.10;99.90;;;;;;4933845;29;20079;-80
2023/10/27 11:51:26;;;;;;;58.53;39.22;;;10.10;99.90;;;;;;4918187;29;20051;-81
2023/10/27 11:53:52;;;;;;;55.60;38.70;;;10.10;99.90;;;;;;4920896;29;20403;-81
2023/10/27 11:56:18;;;;;;;78.20;43.92;;;10.10;99.90;;;;;;4919099;29;20048;-80
2023/10/27 11:58:43;;;;;;;66.78;43.17;;;10.10;99.90;;;;;;4922598;29;20406;-81
2023/10/27 12:01:09;;;;;;;59.03;40.53;;;10.10;99.90;;;;;;4912408;29;20076;-80
2023/10/27 12:03:35;;;;;;;70.85;43.60;;;10.10;99.90;;;;;;4891356;29;20055;-80
2023/10/27 12:06:01;;;;;;;126.38;48.80;;;10.10;99.90;;;;;;4905631;29;20127;-80
2023/10/27 12:08:28;;;;;;;88.03;45.22;;;10.10;99.90;;;;;;4911565;29;20047;-80
2023/10/27 12:10:54;;;;;;;62.92;41.95;;;10.10;99.90;;;;;;4908888;29;20083;-80
2023/10/27 12:13:24;;;;;;;71.82;41.20;;;10.10;99.90;;;;;;4904093;29;20036;-80
2023/10/27 12:15:49;;;;;;;53.70;37.22;;;10.10;99.90;;;;;;4902611;29;20096;-80
2023/10/27 12:18:15;;;;;;;54.22;37.22;;;10.20;99.90;;;;;;4917537;29;20498;-80
2023/10/27 12:20:41;;;;;;;71.45;39.25;;;10.20;99.90;;;;;;4914788;29;20050;-79
2023/10/27 12:23:08;;;;;;;54.80;37.25;;;10.20;99.90;;;;;;4909303;29;20032;-79
2023/10/27 12:25:34;;;;;;;52.78;35.97;;;10.20;99.90;;;;;;4926184;29;20051;-80
2023/10/27 12:28:00;;;;;;;52.45;35.28;;;10.20;99.90;;;;;;4931604;29;20044;-80
2023/10/27 12:30:25;;;;;;;51.42;34.97;;;10.20;99.90;;;;;;4924948;29;20179;-80